| time (UTC) | temp F | wind direction | speed knots | gust knots | rain 1hr in | rain 24hr in | rain mn in | humidity % | barometer mb |
| 20260504221042 | 74 | 238 | 1.7 | 6.1 | 0.00 | 0.00 | 0.00 | 32 | 1014.2 |
| 20260504220542 | 74 | 114 | 3.5 | 6.1 | 0.00 | 0.00 | 0.00 | 30 | 1014.3 |
| 20260504220049 | 74 | 106 | 1.7 | 7.8 | 0.00 | 0.00 | 0.00 | 31 | 1014.3 |
| 20260504215543 | 74 | 148 | 2.6 | 7.8 | 0.00 | 0.00 | 0.00 | 29 | 1014.3 |
| 20260504215042 | 74 | 244 | 0.9 | 7.8 | 0.00 | 0.00 | 0.00 | 30 | 1014.2 |
| 20260504214606 | 73 | 162 | 1.7 | 7.8 | 0.00 | 0.00 | 0.00 | 33 | 1014.3 |
| 20260504214043 | 73 | 156 | 1.7 | 7.0 | 0.00 | 0.00 | 0.00 | 33 | 1014.4 |
| 20260504213543 | 73 | 252 | 1.7 | 7.0 | 0.00 | 0.00 | 0.00 | 33 | 1014.5 |
| 20260504213100 | 73 | 63 | 1.7 | 7.0 | 0.00 | 0.00 | 0.00 | 32 | 1014.5 |
| 20260504212543 | 73 | 243 | 1.7 | 7.0 | 0.00 | 0.00 | 0.00 | 30 | 1014.5 |
| 20260504212044 | 73 | 71 | 2.6 | 7.0 | 0.00 | 0.00 | 0.00 | 29 | 1014.6 |
| 20260504211555 | 74 | 108 | 1.7 | 7.0 | 0.00 | 0.00 | 0.00 | 34 | 1014.6 |
| 20260504211046 | 74 | 162 | 1.7 | 6.1 | 0.00 | 0.00 | 0.00 | 37 | 1014.6 |
| 20260504210542 | 73 | 161 | 0.9 | 6.1 | 0.00 | 0.00 | 0.00 | 31 | 1014.6 |
| 20260504210050 | 73 | 342 | 1.7 | 7.0 | 0.00 | 0.00 | 0.00 | 32 | 1014.6 |
| 20260504205544 | 73 | 226 | 2.6 | 7.0 | 0.00 | 0.00 | 0.00 | 31 | 1014.5 |
| 20260504205043 | 73 | 212 | 1.7 | 5.2 | 0.00 | 0.00 | 0.00 | 32 | 1014.6 |
| 20260504204552 | 73 | 111 | 2.6 | 7.8 | 0.00 | 0.00 | 0.00 | 32 | 1014.7 |
| 20260504204044 | 73 | 64 | 1.7 | 7.8 | 0.00 | 0.00 | 0.00 | 31 | 1014.7 |
| 20260504203546 | 72 | 53 | 0.9 | 6.1 | 0.00 | 0.00 | 0.00 | 36 | 1014.7 |
| 20260504203104 | 72 | 205 | 0.9 | 6.1 | 0.00 | 0.00 | 0.00 | 31 | 1014.7 |
| 20260504202543 | 72 | 217 | 0.9 | 6.1 | 0.00 | 0.00 | 0.00 | 33 | 1014.8 |
| 20260504202043 | 72 | 80 | 1.7 | 6.1 | 0.00 | 0.00 | 0.00 | 32 | 1014.8 |
| 20260504201613 | 72 | 295 | 0.9 | 6.1 | 0.00 | 0.00 | 0.00 | 31 | 1014.7 |
| 20260504201047 | 72 | 246 | 2.6 | 6.1 | 0.00 | 0.00 | 0.00 | 37 | 1014.7 |
| 20260504200543 | 71 | 81 | 1.7 | 6.1 | 0.00 | 0.00 | 0.00 | 33 | 1014.9 |
| 20260504200056 | 71 | 159 | 2.6 | 6.1 | 0.00 | 0.00 | 0.00 | 31 | 1014.9 |
| 20260504195542 | 72 | 0 | 0.9 | 7.0 | 0.00 | 0.00 | 0.00 | 32 | 1014.9 |
| 20260504195042 | 71 | 229 | 2.6 | 7.0 | 0.00 | 0.00 | 0.00 | 31 | 1014.9 |
| 20260504194553 | 72 | 91 | 1.7 | 5.2 | 0.00 | 0.00 | 0.00 | 32 | 1015.0 |
| 20260504194043 | 71 | 155 | 0.9 | 5.2 | 0.00 | 0.00 | 0.00 | 32 | 1015.0 |
| 20260504193543 | 71 | 125 | 1.7 | 9.6 | 0.00 | 0.00 | 0.00 | 35 | 1014.9 |
| 20260504193109 | 71 | 257 | 2.6 | 9.6 | 0.00 | 0.00 | 0.00 | 34 | 1015.0 |
| 20260504192543 | 71 | 127 | 2.6 | 9.6 | 0.00 | 0.00 | 0.00 | 35 | 1015.1 |
| 20260504192042 | 71 | 96 | 0.9 | 9.6 | 0.00 | 0.00 | 0.00 | 34 | 1015.0 |
| 20260504191559 | 71 | 208 | 0.9 | 7.8 | 0.00 | 0.00 | 0.00 | 34 | 1015.1 |
| 20260504191043 | 72 | 64 | 1.7 | 9.6 | 0.00 | 0.00 | 0.00 | 33 | 1015.1 |
| 20260504190544 | 71 | 237 | 3.5 | 9.6 | 0.00 | 0.00 | 0.00 | 34 | 1015.0 |
| 20260504190113 | 71 | 240 | 2.6 | 6.1 | 0.00 | 0.00 | 0.00 | 36 | 1015.1 |
| 20260504185545 | 70 | 67 | 0.9 | 7.0 | 0.00 | 0.00 | 0.00 | 33 | 1015.1 |
| 20260504185042 | 70 | 136 | 1.7 | 7.0 | 0.00 | 0.00 | 0.00 | 34 | 1015.2 |
| 20260504184608 | 70 | 216 | 2.6 | 7.8 | 0.00 | 0.00 | 0.00 | 35 | 1015.3 |
| 20260504184043 | 69 | 179 | 3.5 | 7.8 | 0.00 | 0.00 | 0.00 | 35 | 1015.3 |
| 20260504183542 | 69 | 262 | 3.5 | 7.8 | 0.00 | 0.00 | 0.00 | 35 | 1015.3 |
| 20260504183050 | 69 | 147 | 1.7 | 7.0 | 0.00 | 0.00 | 0.00 | 36 | 1015.2 |
| 20260504182543 | 69 | 129 | 2.6 | 7.0 | 0.00 | 0.00 | 0.00 | 33 | 1015.3 |
| 20260504182042 | 69 | 94 | 1.7 | 7.0 | 0.00 | 0.00 | 0.00 | 37 | 1015.2 |
| 20260504181551 | 69 | 228 | 3.5 | 13.0 | 0.00 | 0.00 | 0.00 | 40 | 1015.2 |
| 20260504181043 | 69 | 72 | 2.6 | 13.0 | 0.00 | 0.00 | 0.00 | 38 | 1015.2 |
| 20260504180543 | 69 | 303 | 1.7 | 9.6 | 0.00 | 0.00 | 0.00 | 36 | 1015.2 |
| 20260504180059 | 69 | 308 | 2.6 | 8.7 | 0.00 | 0.00 | 0.00 | 34 | 1015.3 |
| 20260504175544 | 69 | 99 | 1.7 | 8.7 | 0.00 | 0.00 | 0.00 | 35 | 1015.2 |
| 20260504175043 | 68 | 198 | 2.6 | 8.7 | 0.00 | 0.00 | 0.00 | 36 | 1015.2 |
| 20260504174555 | 68 | 153 | 2.6 | 8.7 | 0.00 | 0.00 | 0.00 | 35 | 1015.2 |
| 20260504174043 | 68 | 124 | 3.5 | 8.7 | 0.00 | 0.00 | 0.00 | 36 | 1015.2 |
| 20260504173542 | 68 | 349 | 3.5 | 11.3 | 0.00 | 0.00 | 0.00 | 36 | 1015.1 |
| 20260504173051 | 68 | 228 | 3.5 | 11.3 | 0.00 | 0.00 | 0.00 | 34 | 1015.1 |
| 20260504172542 | 68 | 327 | 1.7 | 8.7 | 0.00 | 0.00 | 0.00 | 35 | 1015.1 |
| 20260504172042 | 68 | 263 | 1.7 | 7.8 | 0.00 | 0.00 | 0.00 | 34 | 1015.0 |
| 20260504171557 | 67 | 335 | 2.6 | 7.8 | 0.00 | 0.00 | 0.00 | 38 | 1015.1 |
| 20260504171042 | 67 | 172 | 2.6 | 8.7 | 0.00 | 0.00 | 0.00 | 37 | 1015.1 |
| 20260504170544 | 67 | 297 | 2.6 | 8.7 | 0.00 | 0.00 | 0.00 | 36 | 1015.0 |
| 20260504151043 | 61 | 86 | 3.5 | 8.7 | 0.00 | 0.00 | 0.00 | 44 | 1015.0 |
| 20260504150542 | 61 | 346 | 3.5 | 8.7 | 0.00 | 0.00 | 0.00 | 48 | 1014.9 |
| 20260504141042 | 46 | 25 | 0.0 | 0.9 | 0.00 | 0.00 | 0.00 | 88 | 1014.7 |
| 20260504140542 | 45 | 0 | 0.0 | 0.9 | 0.00 | 0.00 | 0.00 | 88 | 1014.7 |
| 20260504140108 | 45 | 34 | 0.0 | 1.7 | 0.00 | 0.00 | 0.00 | 88 | 1014.6 |
| 20260504130543 | 41 | 0 | 0.0 | 0.9 | 0.00 | 0.00 | 0.00 | 92 | 1014.0 |
| 20260504120109 | 40 | 0 | 0.0 | 0.0 | 0.00 | 0.00 | 0.00 | 91 | 1013.8 |
| 20260504110547 | 41 | 0 | 0.0 | 0.9 | 0.00 | 0.00 | 0.00 | 91 | 1013.7 |
| 20260504100547 | 42 | 0 | 0.0 | 0.0 | 0.00 | 0.00 | 0.00 | 88 | 1013.8 |
| 20260504081549 | 45 | 0 | 0.0 | 0.9 | 0.00 | 0.00 | 0.00 | 85 | 1013.5 |
| 20260504081042 | 45 | 0 | 0.0 | 0.9 | 0.00 | 0.00 | 0.00 | 84 | 1013.5 |
| 20260504080542 | 45 | 0 | 0.0 | 0.9 | 0.00 | 0.00 | 0.00 | 84 | 1013.5 |
| 20260504050542 | 52 | 0 | 0.0 | 0.9 | 0.00 | 0.00 | 0.00 | 75 | 1013.4 |
| 20260504045542 | 52 | 0 | 0.0 | 0.9 | 0.00 | 0.00 | 0.00 | 74 | 1013.5 |
| 20260504045042 | 53 | 0 | 0.0 | 0.9 | 0.00 | 0.00 | 0.00 | 74 | 1013.5 |
| 20260504044552 | 53 | 0 | 0.0 | 0.9 | 0.00 | 0.00 | 0.00 | 72 | 1013.4 |
| 20260504044043 | 53 | 0 | 0.0 | 0.9 | 0.00 | 0.00 | 0.00 | 73 | 1013.3 |
| 20260504043543 | 53 | 0 | 0.0 | 0.9 | 0.00 | 0.00 | 0.00 | 72 | 1013.3 |
| 20260504043053 | 54 | 345 | 0.0 | 0.0 | 0.00 | 0.00 | 0.00 | 73 | 1013.3 |
| 20260504042542 | 54 | 345 | 0.0 | 0.9 | 0.00 | 0.00 | 0.00 | 70 | 1013.4 |
| 20260504042042 | 55 | 0 | 0.0 | 0.9 | 0.00 | 0.00 | 0.00 | 69 | 1013.3 |
| 20260504041556 | 55 | 0 | 0.0 | 0.9 | 0.00 | 0.00 | 0.00 | 68 | 1013.2 |
| 20260504041042 | 55 | 0 | 0.0 | 0.9 | 0.00 | 0.00 | 0.00 | 67 | 1013.1 |
| 20260504040544 | 55 | 0 | 0.0 | 0.9 | 0.00 | 0.00 | 0.00 | 66 | 1013.2 |
| 20260504040058 | 55 | 345 | 0.0 | 0.9 | 0.00 | 0.00 | 0.00 | 66 | 1013.1 |
| 20260504035542 | 56 | 345 | 0.0 | 0.9 | 0.00 | 0.00 | 0.00 | 66 | 1013.1 |
| 20260504035042 | 56 | 0 | 0.0 | 0.9 | 0.00 | 0.00 | 0.00 | 66 | 1013.1 |
| 20260504034553 | 56 | 0 | 0.0 | 0.9 | 0.00 | 0.00 | 0.00 | 66 | 1013.0 |
| 20260504034045 | 57 | 0 | 0.0 | 0.9 | 0.00 | 0.00 | 0.00 | 65 | 1013.0 |
| 20260504033543 | 57 | 0 | 0.0 | 0.9 | 0.00 | 0.00 | 0.00 | 65 | 1013.0 |
| 20260504033054 | 58 | 0 | 0.0 | 0.9 | 0.00 | 0.00 | 0.00 | 64 | 1013.0 |
| 20260504032543 | 58 | 345 | 0.0 | 0.9 | 0.00 | 0.00 | 0.00 | 62 | 1012.8 |
| 20260504032043 | 58 | 0 | 0.0 | 0.9 | 0.00 | 0.00 | 0.00 | 62 | 1012.8 |
| 20260504031601 | 59 | 0 | 0.0 | 0.9 | 0.00 | 0.00 | 0.00 | 61 | 1012.8 |
| 20260504031045 | 59 | 0 | 0.0 | 0.9 | 0.00 | 0.00 | 0.00 | 62 | 1012.8 |
| 20260504030543 | 60 | 0 | 0.0 | 0.9 | 0.00 | 0.00 | 0.00 | 61 | 1012.8 |
| 20260504030052 | 60 | 338 | 0.0 | 0.9 | 0.00 | 0.00 | 0.00 | 59 | 1012.8 |
| 20260504025542 | 61 | 338 | 0.0 | 0.9 | 0.00 | 0.00 | 0.00 | 59 | 1012.8 |
| 20260504025046 | 62 | 0 | 0.0 | 0.9 | 0.00 | 0.00 | 0.00 | 58 | 1012.8 |
| 20260504024556 | 62 | 0 | 0.0 | 0.9 | 0.00 | 0.00 | 0.00 | 57 | 1012.8 |
| 20260504024042 | 63 | 336 | 0.0 | 0.9 | 0.00 | 0.00 | 0.00 | 55 | 1012.7 |
| 20260504023545 | 63 | 336 | 0.0 | 0.9 | 0.00 | 0.00 | 0.00 | 56 | 1012.8 |
| 20260504023050 | 63 | 0 | 0.0 | 0.0 | 0.00 | 0.00 | 0.00 | 55 | 1012.8 |
| 20260504022542 | 64 | 320 | 0.0 | 0.9 | 0.00 | 0.00 | 0.00 | 54 | 1012.8 |
| 20260504022043 | 64 | 319 | 0.0 | 0.9 | 0.00 | 0.00 | 0.00 | 52 | 1012.8 |
| 20260504021555 | 65 | 316 | 0.0 | 0.9 | 0.00 | 0.00 | 0.00 | 50 | 1012.8 |
| 20260504021042 | 65 | 314 | 0.0 | 0.9 | 0.00 | 0.00 | 0.00 | 50 | 1012.8 |
| 20260504020542 | 66 | 314 | 0.0 | 1.7 | 0.00 | 0.00 | 0.00 | 48 | 1012.8 |
| 20260504020052 | 66 | 311 | 0.0 | 1.7 | 0.00 | 0.00 | 0.00 | 47 | 1012.8 |
| 20260504015543 | 66 | 311 | 0.9 | 1.7 | 0.00 | 0.00 | 0.00 | 46 | 1012.8 |
| 20260504015043 | 66 | 302 | 0.0 | 1.7 | 0.00 | 0.00 | 0.00 | 46 | 1012.8 |
| 20260504014554 | 66 | 300 | 0.9 | 1.7 | 0.00 | 0.00 | 0.00 | 48 | 1012.8 |
| 20260504014042 | 67 | 293 | 0.0 | 0.9 | 0.00 | 0.00 | 0.00 | 45 | 1012.9 |
| 20260504013542 | 67 | 290 | 0.0 | 0.9 | 0.00 | 0.00 | 0.00 | 43 | 1012.8 |
| 20260504013103 | 67 | 0 | 0.9 | 0.9 | 0.00 | 0.00 | 0.00 | 42 | 1013.0 |
| 20260504012544 | 68 | 323 | 0.0 | 1.7 | 0.00 | 0.00 | 0.00 | 42 | 1013.0 |
| 20260504012044 | 68 | 0 | 0.0 | 1.7 | 0.00 | 0.00 | 0.00 | 40 | 1013.0 |
| 20260504011552 | 68 | 302 | 0.9 | 1.7 | 0.00 | 0.00 | 0.00 | 42 | 1013.0 |
| 20260504011042 | 69 | 309 | 1.7 | 2.6 | 0.00 | 0.00 | 0.00 | 41 | 1013.1 |
| 20260504010541 | 69 | 285 | 1.7 | 2.6 | 0.00 | 0.00 | 0.00 | 39 | 1013.1 |
| 20260504010055 | 69 | 269 | 0.0 | 1.7 | 0.00 | 0.00 | 0.00 | 38 | 1013.1 |
| 20260504005544 | 70 | 282 | 0.0 | 0.9 | 0.00 | 0.00 | 0.00 | 38 | 1013.2 |
| 20260504005043 | 70 | 282 | 0.9 | 1.7 | 0.00 | 0.00 | 0.00 | 37 | 1013.3 |
| 20260504004601 | 70 | 281 | 0.0 | 1.7 | 0.00 | 0.00 | 0.00 | 37 | 1013.4 |
| 20260504004043 | 70 | 296 | 0.9 | 1.7 | 0.00 | 0.00 | 0.00 | 39 | 1013.4 |
| 20260504003544 | 71 | 296 | 0.9 | 5.2 | 0.00 | 0.00 | 0.00 | 34 | 1013.4 |
| 20260504003048 | 72 | 301 | 0.9 | 5.2 | 0.00 | 0.00 | 0.00 | 34 | 1013.5 |
| 20260504002542 | 72 | 293 | 2.6 | 5.2 | 0.00 | 0.00 | 0.00 | 34 | 1013.6 |
| 20260504002045 | 71 | 263 | 0.9 | 1.7 | 0.00 | 0.00 | 0.00 | 36 | 1013.7 |
| 20260504001618 | 72 | 281 | 0.9 | 1.7 | 0.00 | 0.00 | 0.00 | 37 | 1013.7 |
| 20260504001043 | 73 | 278 | 0.0 | 1.7 | 0.00 | 0.00 | 0.00 | 35 | 1013.7 |
| 20260504000543 | 73 | 278 | 0.9 | 1.7 | 0.00 | 0.00 | 0.00 | 35 | 1013.6 |
| 20260504000056 | 73 | 300 | 0.9 | 1.7 | 0.00 | 0.00 | 0.00 | 34 | 1013.6 |
| 20260503235543 | 74 | 308 | 0.0 | 3.5 | 0.00 | 0.00 | 0.00 | 35 | 1013.7 |
| 20260503235046 | 74 | 268 | 0.9 | 3.5 | 0.00 | 0.00 | 0.00 | 34 | 1013.8 |
| 20260503234550 | 74 | 264 | 0.9 | 2.6 | 0.00 | 0.00 | 0.00 | 38 | 1013.8 |
| 20260503234043 | 74 | 337 | 0.9 | 4.3 | 0.00 | 0.00 | 0.00 | 35 | 1013.8 |
| 20260503233542 | 76 | 290 | 0.9 | 4.3 | 0.00 | 0.00 | 0.00 | 32 | 1013.8 |
| 20260503233050 | 76 | 0 | 0.9 | 1.7 | 0.00 | 0.00 | 0.00 | 31 | 1013.9 |
| 20260503232542 | 76 | 307 | 0.9 | 3.5 | 0.00 | 0.00 | 0.00 | 30 | 1013.8 |
| 20260503232042 | 76 | 0 | 0.9 | 3.5 | 0.00 | 0.00 | 0.00 | 29 | 1014.0 |
| 20260503231555 | 77 | 102 | 0.9 | 5.2 | 0.00 | 0.00 | 0.00 | 31 | 1014.1 |
| 20260503231043 | 77 | 250 | 1.7 | 5.2 | 0.00 | 0.00 | 0.00 | 26 | 1014.2 |
| 20260503230543 | 77 | 0 | 0.0 | 6.1 | 0.00 | 0.00 | 0.00 | 29 | 1014.2 |
| 20260503230053 | 77 | 119 | 1.7 | 6.1 | 0.00 | 0.00 | 0.00 | 25 | 1014.3 |
| 20260503225542 | 77 | 48 | 0.0 | 6.1 | 0.00 | 0.00 | 0.00 | 27 | 1014.3 |
| 20260503225042 | 76 | 57 | 0.9 | 1.7 | 0.00 | 0.00 | 0.00 | 28 | 1014.5 |
| 20260503224546 | 77 | 0 | 0.0 | 3.5 | 0.00 | 0.00 | 0.00 | 30 | 1014.5 |
| 20260503224043 | 78 | 279 | 0.0 | 3.5 | 0.00 | 0.00 | 0.00 | 28 | 1014.6 |
| 20260503223542 | 78 | 349 | 0.0 | 3.5 | 0.00 | 0.00 | 0.00 | 25 | 1014.8 |
| 20260503223051 | 78 | 283 | 0.9 | 3.5 | 0.00 | 0.00 | 0.00 | 27 | 1014.9 |
| 20260503222541 | 78 | 265 | 0.9 | 6.1 | 0.00 | 0.00 | 0.00 | 27 | 1014.9 |
| 20260503222047 | 78 | 142 | 0.9 | 6.1 | 0.00 | 0.00 | 0.00 | 24 | 1015.0 |
| 20260503221554 | 77 | 138 | 0.9 | 5.2 | 0.00 | 0.00 | 0.00 | 25 | 1015.1 |